Time;durP1;ratioP1;P1;durP2;ratioP2;P2;SDS_P1;SDS_P2;PMS_P1;PMS_P2;Temp;Humidity;BMP_temperature;BMP_pressure;BME280_temperature;BME280_humidity;BME280_pressure;Samples;Min_cycle;Max_cycle;Signal;HPM_P1;HPM_P2
2021/12/25 00:01:19;;;;;;;61.15;43.88;;;7.50;86.60;;;;;;4969263;28;20137;-81
2021/12/25 00:03:45;;;;;;;53.42;42.47;;;7.60;86.70;;;;;;4962882;28;20031;-81
2021/12/25 00:06:11;;;;;;;56.13;42.72;;;7.60;86.70;;;;;;4956828;28;20548;-81
2021/12/25 00:08:36;;;;;;;53.05;41.63;;;7.60;86.60;;;;;;4957866;28;20036;-81
2021/12/25 00:11:05;;;;;;;56.63;41.88;;;7.60;86.40;;;;;;4984831;28;20506;-81
2021/12/25 00:13:31;;;;;;;63.60;47.13;;;7.70;86.30;;;;;;4953800;28;20042;-79
2021/12/25 00:15:57;;;;;;;52.25;40.25;;;7.60;85.70;;;;;;4969251;28;20379;-79
2021/12/25 00:18:23;;;;;;;57.72;40.83;;;7.60;86.00;;;;;;4962693;28;20034;-79
2021/12/25 00:20:49;;;;;;;55.42;41.30;;;7.60;85.90;;;;;;4964452;28;20125;-79
2021/12/25 00:23:15;;;;;;;56.03;41.47;;;7.60;86.10;;;;;;4957594;28;20036;-79
2021/12/25 00:25:46;;;;;;;53.17;40.13;;;7.70;86.10;;;;;;4954995;28;20047;-79
2021/12/25 00:36:09;;;;;;;50.58;38.03;;;7.80;85.30;;;;;;4958532;28;20046;-80
2021/12/25 00:38:37;;;;;;;51.25;38.55;;;7.70;85.00;;;;;;4949643;28;20170;-77
2021/12/25 00:41:04;;;;;;;55.75;40.15;;;7.70;85.10;;;;;;4960963;28;20039;-76
2021/12/25 00:43:30;;;;;;;57.40;41.30;;;7.60;85.30;;;;;;4963252;28;20047;-76
2021/12/25 00:45:56;;;;;;;57.72;43.58;;;7.60;85.50;;;;;;4969669;28;20086;-76
2021/12/25 00:48:21;;;;;;;58.88;44.55;;;7.70;85.50;;;;;;4954116;28;20539;-76
2021/12/25 00:50:48;;;;;;;55.03;42.33;;;7.70;85.40;;;;;;4959659;28;20170;-76
2021/12/25 00:53:14;;;;;;;57.33;43.25;;;7.70;85.40;;;;;;4969130;28;20047;-77
2021/12/25 00:55:39;;;;;;;54.80;42.80;;;7.70;85.50;;;;;;4959842;28;20058;-76
2021/12/25 00:58:05;;;;;;;54.05;42.42;;;7.60;85.70;;;;;;4969640;28;20550;-76
2021/12/25 01:00:31;;;;;;;56.17;42.53;;;7.60;85.70;;;;;;4954889;28;20040;-76
2021/12/25 01:02:56;;;;;;;58.75;44.85;;;7.60;85.80;;;;;;4985765;28;20081;-75
2021/12/25 01:05:22;;;;;;;52.72;40.40;;;7.60;85.90;;;;;;4961355;28;20035;-76
2021/12/25 01:07:48;;;;;;;55.75;43.13;;;7.60;86.00;;;;;;4959189;28;20071;-76
2021/12/25 01:10:18;;;;;;;60.47;44.00;;;7.60;86.20;;;;;;4972108;28;20045;-77
2021/12/25 01:13:34;;;;;;;64.38;45.05;;;7.60;86.00;;;;;;4966545;28;20054;-76
2021/12/25 01:31:55;;;;;;;61.20;44.00;;;7.50;86.50;;;;;;4965050;28;20468;-76
2021/12/25 01:50:09;;;;;;;62.30;45.80;;;7.60;86.40;;;;;;4972355;28;20042;-75
2021/12/25 01:52:35;;;;;;;57.60;44.65;;;7.60;86.60;;;;;;4960845;28;20026;-75
2021/12/25 01:55:09;;;;;;;55.45;44.15;;;7.60;86.40;;;;;;4966332;28;20117;-76
2021/12/25 01:57:35;;;;;;;57.83;44.72;;;7.60;86.30;;;;;;4963198;28;20098;-76
2021/12/25 02:00:14;;;;;;;56.53;42.78;;;7.60;86.30;;;;;;4963371;28;20046;-76
2021/12/25 02:02:40;;;;;;;56.45;43.05;;;7.60;86.30;;;;;;4967660;28;20057;-76
2021/12/25 02:05:06;;;;;;;56.25;42.65;;;7.60;86.30;;;;;;4965620;28;20031;-76
2021/12/25 02:07:32;;;;;;;56.58;43.35;;;7.60;86.20;;;;;;4962053;28;20118;-76
2021/12/25 02:09:57;;;;;;;59.83;45.53;;;7.60;86.20;;;;;;4970294;28;20122;-76
2021/12/25 02:12:23;;;;;;;55.58;43.08;;;7.60;86.20;;;;;;4964718;28;20444;-76
2021/12/25 02:14:51;;;;;;;54.30;41.83;;;7.50;86.40;;;;;;4962096;28;20035;-76
2021/12/25 02:17:23;;;;;;;58.45;43.33;;;7.50;86.40;;;;;;4958284;28;20109;-76
2021/12/25 02:20:08;;;;;;;57.67;43.90;;;7.50;86.50;;;;;;4964960;28;20520;-76
2021/12/25 02:22:34;;;;;;;52.90;40.70;;;7.60;86.50;;;;;;4945940;28;20062;-76
2021/12/25 02:24:59;;;;;;;56.58;42.47;;;7.60;86.40;;;;;;4954240;28;20039;-76
2021/12/25 02:27:25;;;;;;;62.25;45.60;;;7.60;86.40;;;;;;4964270;28;20051;-76
2021/12/25 02:29:51;;;;;;;67.38;51.78;;;7.60;86.30;;;;;;4945141;28;20064;-77
2021/12/25 02:32:16;;;;;;;62.00;45.33;;;7.60;86.20;;;;;;4963654;28;20047;-77
2021/12/25 02:34:43;;;;;;;59.67;43.63;;;7.60;86.30;;;;;;4957444;28;20043;-77
2021/12/25 02:37:09;;;;;;;60.38;45.13;;;7.60;86.30;;;;;;4962370;28;20065;-77
2021/12/25 02:39:35;;;;;;;57.33;43.78;;;7.60;86.40;;;;;;4966149;28;20488;-77
2021/12/25 02:42:01;;;;;;;56.88;43.92;;;7.60;86.40;;;;;;4958558;28;20043;-77
2021/12/25 02:44:27;;;;;;;59.92;44.20;;;7.60;86.30;;;;;;4959434;28;20039;-77
2021/12/25 02:46:55;;;;;;;58.90;43.67;;;7.60;86.30;;;;;;4958782;28;20027;-77
2021/12/25 02:49:21;;;;;;;59.08;43.90;;;7.60;86.30;;;;;;4965757;28;20042;-77
2021/12/25 02:51:48;;;;;;;60.88;46.10;;;7.60;86.10;;;;;;4969626;28;20085;-77
2021/12/25 02:54:13;;;;;;;62.90;46.83;;;7.60;86.10;;;;;;4954644;28;20067;-77
2021/12/25 02:56:39;;;;;;;61.20;46.35;;;7.60;86.10;;;;;;4961459;28;20110;-77
2021/12/25 02:59:05;;;;;;;58.65;44.88;;;7.70;86.10;;;;;;4960521;28;20027;-77
2021/12/25 03:01:31;;;;;;;58.35;44.35;;;7.70;86.10;;;;;;4953355;28;20401;-77
2021/12/25 03:03:56;;;;;;;56.80;43.83;;;7.70;86.00;;;;;;4970533;28;20492;-76
2021/12/25 03:06:25;;;;;;;59.92;45.42;;;7.70;85.90;;;;;;4955903;28;20039;-75
2021/12/25 03:08:51;;;;;;;56.92;43.10;;;7.70;86.10;;;;;;4961190;28;20166;-76
2021/12/25 03:11:16;;;;;;;58.35;44.13;;;7.70;86.30;;;;;;4962069;28;20114;-77
2021/12/25 03:13:57;;;;;;;62.58;44.40;;;7.80;86.60;;;;;;4955425;28;20048;-77
2021/12/25 03:16:24;;;;;;;56.35;42.45;;;7.80;86.20;;;;;;4963232;28;20122;-77
2021/12/25 03:18:53;;;;;;;56.45;43.35;;;7.80;86.00;;;;;;4960481;28;20105;-78
2021/12/25 03:21:20;;;;;;;56.45;43.75;;;7.80;86.00;;;;;;4958361;28;20039;-78
2021/12/25 03:23:48;;;;;;;62.35;47.17;;;7.70;86.00;;;;;;4959919;28;20050;-79
2021/12/25 03:26:14;;;;;;;59.08;43.38;;;7.60;85.50;;;;;;4956853;28;20114;-79
2021/12/25 03:28:44;;;;;;;56.55;42.67;;;7.60;85.90;;;;;;4961305;28;20098;-79
2021/12/25 03:31:18;;;;;;;53.17;40.55;;;7.60;86.00;;;;;;4956649;28;20472;-79
2021/12/25 03:33:46;;;;;;;58.60;43.45;;;7.60;86.00;;;;;;4967770;28;20043;-79
2021/12/25 03:36:12;;;;;;;61.08;46.00;;;7.60;86.10;;;;;;4975908;28;20085;-79
2021/12/25 03:38:37;;;;;;;55.08;43.45;;;7.60;86.20;;;;;;4964078;28;20420;-79
2021/12/25 03:41:06;;;;;;;56.28;41.90;;;7.60;86.20;;;;;;4963852;28;20055;-80
2021/12/25 03:43:34;;;;;;;63.53;48.30;;;7.50;86.40;;;;;;4964951;28;20043;-80
2021/12/25 03:46:00;;;;;;;66.03;51.65;;;7.60;86.60;;;;;;4963114;28;20039;-80
2021/12/25 03:58:59;;;;;;;58.65;43.40;;;7.50;86.70;;;;;;4966784;28;20133;-78
2021/12/25 04:06:32;;;;;;;64.07;46.42;;;7.10;88.20;;;;;;4955496;28;20035;-79
2021/12/25 04:09:00;;;;;;;57.95;44.60;;;7.10;88.00;;;;;;4956672;28;20032;-80
2021/12/25 04:11:32;;;;;;;59.80;44.60;;;7.20;87.90;;;;;;4964569;28;20126;-79
2021/12/25 04:13:58;;;;;;;56.83;43.28;;;7.30;87.70;;;;;;4957164;28;20641;-79
2021/12/25 04:16:28;;;;;;;56.20;42.90;;;7.40;87.50;;;;;;4971068;28;20050;-78
2021/12/25 04:18:55;;;;;;;56.72;43.60;;;7.40;87.40;;;;;;4968373;28;20118;-78
2021/12/25 04:21:22;;;;;;;58.92;44.13;;;7.50;87.20;;;;;;4961523;28;20051;-77
2021/12/25 04:23:48;;;;;;;63.22;47.00;;;7.50;87.00;;;;;;4958459;28;20027;-76
2021/12/25 04:26:14;;;;;;;70.45;51.22;;;7.50;86.40;;;;;;4965298;28;20043;-78
2021/12/25 04:28:49;;;;;;;57.03;42.22;;;7.30;85.10;;;;;;4960061;28;20122;-78
2021/12/25 05:01:40;;;;;;;60.40;43.28;;;7.00;85.60;;;;;;4973868;28;20053;-78
2021/12/25 05:04:09;;;;;;;55.25;41.40;;;7.10;85.10;;;;;;4968776;28;20050;-79
2021/12/25 05:06:35;;;;;;;48.15;36.20;;;7.10;84.50;;;;;;4960710;28;20030;-79
2021/12/25 05:09:00;;;;;;;51.88;37.00;;;7.20;84.50;;;;;;4959055;28;20476;-79
2021/12/25 05:11:26;;;;;;;48.10;34.70;;;7.20;84.40;;;;;;4967419;28;20093;-79
2021/12/25 05:13:52;;;;;;;61.38;43.63;;;7.20;84.30;;;;;;4972508;28;20051;-79
2021/12/25 05:16:19;;;;;;;49.03;36.70;;;7.20;83.90;;;;;;4959745;28;20035;-79
2021/12/25 05:18:44;;;;;;;50.03;37.42;;;7.20;84.10;;;;;;4961504;28;20030;-79
2021/12/25 05:21:12;;;;;;;57.88;41.75;;;7.30;84.20;;;;;;4968588;28;20042;-79
2021/12/25 05:23:40;;;;;;;51.38;38.60;;;7.20;83.80;;;;;;4958193;28;20473;-79
2021/12/25 05:26:06;;;;;;;45.95;34.92;;;7.20;84.30;;;;;;4957108;28;20141;-79
2021/12/25 05:28:40;;;;;;;48.60;36.88;;;7.20;84.30;;;;;;4960518;28;20539;-79
2021/12/25 05:31:12;;;;;;;50.78;36.17;;;7.20;84.10;;;;;;4968076;28;20070;-79
2021/12/25 05:33:38;;;;;;;50.53;37.80;;;7.20;84.20;;;;;;4957931;28;20118;-79
2021/12/25 05:36:04;;;;;;;48.67;35.70;;;7.30;84.30;;;;;;4971918;28;20070;-79
2021/12/25 05:38:30;;;;;;;52.30;38.42;;;7.30;84.10;;;;;;4959892;28;20077;-79
2021/12/25 05:40:56;;;;;;;50.53;36.45;;;7.30;84.00;;;;;;4975844;28;20047;-79
2021/12/25 05:43:22;;;;;;;53.10;38.50;;;7.40;84.00;;;;;;4967989;28;20389;-79
2021/12/25 05:45:49;;;;;;;50.20;36.00;;;7.40;83.90;;;;;;4963557;28;20483;-79
2021/12/25 05:48:14;;;;;;;46.85;35.33;;;7.50;83.90;;;;;;4955912;28;20395;-79
2021/12/25 05:50:40;;;;;;;52.03;38.28;;;7.50;83.70;;;;;;4959597;28;20046;-80
2021/12/25 05:53:06;;;;;;;57.38;43.08;;;7.50;83.40;;;;;;4975398;28;20170;-79
2021/12/25 05:55:32;;;;;;;51.15;36.72;;;7.40;83.30;;;;;;4965511;28;20031;-79
2021/12/25 05:57:59;;;;;;;54.58;39.53;;;7.40;83.60;;;;;;4970424;28;20094;-79
2021/12/25 06:00:25;;;;;;;46.08;33.90;;;7.30;83.30;;;;;;4957746;28;20061;-79
2021/12/25 06:02:51;;;;;;;51.25;37.97;;;7.30;83.90;;;;;;4962985;28;20043;-79
2021/12/25 06:05:18;;;;;;;45.10;35.38;;;7.30;83.70;;;;;;4961726;28;20114;-78
2021/12/25 06:07:43;;;;;;;44.35;33.33;;;7.00;83.60;;;;;;4956688;28;20138;-79
2021/12/25 06:10:10;;;;;;;50.17;38.45;;;7.00;84.00;;;;;;4956922;28;21129;-79
2021/12/25 06:12:41;;;;;;;45.03;33.42;;;7.00;83.30;;;;;;4965715;28;20046;-79
2021/12/25 06:15:08;;;;;;;44.92;33.67;;;6.90;83.90;;;;;;4974513;28;20134;-79
2021/12/25 06:17:34;;;;;;;41.03;30.90;;;6.90;83.70;;;;;;4956551;28;20048;-78
2021/12/25 06:20:00;;;;;;;44.05;33.42;;;7.00;83.90;;;;;;4966250;28;20480;-78
2021/12/25 06:22:25;;;;;;;50.15;38.08;;;6.90;84.00;;;;;;4961267;28;20558;-78
2021/12/25 06:24:51;;;;;;;40.22;30.73;;;6.70;85.20;;;;;;4961487;28;20061;-79
2021/12/25 06:27:17;;;;;;;37.28;29.23;;;6.60;85.60;;;;;;4963803;28;20038;-79
2021/12/25 06:29:43;;;;;;;43.08;29.95;;;6.60;85.60;;;;;;4961657;28;20035;-78
2021/12/25 06:32:09;;;;;;;37.90;29.23;;;6.70;85.60;;;;;;4964238;28;20049;-78
2021/12/25 06:34:35;;;;;;;37.45;28.13;;;6.60;85.50;;;;;;4962120;28;20095;-79
2021/12/25 06:37:01;;;;;;;40.03;28.88;;;6.70;85.30;;;;;;4969210;28;20047;-79
2021/12/25 06:39:27;;;;;;;35.50;26.13;;;6.80;85.40;;;;;;4970372;28;20129;-79
2021/12/25 06:41:53;;;;;;;33.95;25.77;;;6.90;85.20;;;;;;4956139;28;20126;-79
2021/12/25 06:44:20;;;;;;;31.92;24.88;;;6.90;85.10;;;;;;4958321;28;20118;-79
2021/12/25 06:46:46;;;;;;;33.60;25.90;;;7.00;85.10;;;;;;4969282;28;20041;-79
2021/12/25 06:49:12;;;;;;;29.98;23.45;;;7.00;85.60;;;;;;4955711;28;20118;-79
2021/12/25 06:51:38;;;;;;;31.50;24.20;;;7.10;85.00;;;;;;4956823;28;20122;-79
2021/12/25 06:54:04;;;;;;;31.25;24.10;;;7.10;85.00;;;;;;4957498;28;20039;-79
2021/12/25 06:56:30;;;;;;;30.98;24.35;;;7.20;85.30;;;;;;4957720;28;20039;-79
2021/12/25 06:58:56;;;;;;;32.15;25.33;;;7.20;84.90;;;;;;4973283;28;20042;-79
2021/12/25 07:01:22;;;;;;;34.22;25.83;;;7.20;85.00;;;;;;4966260;28;20098;-78
2021/12/25 07:03:47;;;;;;;32.60;25.25;;;7.10;85.30;;;;;;4948449;28;20075;-78
2021/12/25 07:06:13;;;;;;;48.10;37.10;;;7.10;85.40;;;;;;4954304;28;20040;-78
2021/12/25 07:08:39;;;;;;;38.05;27.77;;;6.80;86.10;;;;;;4964895;28;20043;-79
2021/12/25 07:11:04;;;;;;;34.42;25.27;;;6.70;87.00;;;;;;4957026;28;20514;-79
2021/12/25 07:13:30;;;;;;;36.03;26.88;;;6.60;87.50;;;;;;4956548;28;20043;-79
2021/12/25 07:15:56;;;;;;;29.88;24.08;;;6.50;87.60;;;;;;4958566;28;20043;-79
2021/12/25 07:18:21;;;;;;;39.13;27.70;;;6.50;88.10;;;;;;4956550;28;20043;-79
2021/12/25 07:20:48;;;;;;;37.97;26.98;;;6.50;87.80;;;;;;4966589;28;20039;-77
2021/12/25 07:23:18;;;;;;;37.53;27.25;;;6.60;87.60;;;;;;4961535;28;20179;-80
2021/12/25 07:25:44;;;;;;;32.85;25.33;;;6.60;87.70;;;;;;4955946;28;20047;-77
2021/12/25 07:28:10;;;;;;;38.78;27.48;;;6.60;87.60;;;;;;4951165;28;20383;-77
2021/12/25 07:30:36;;;;;;;35.90;26.20;;;6.70;87.20;;;;;;4954728;28;20042;-76
2021/12/25 07:33:03;;;;;;;37.90;28.40;;;6.70;87.30;;;;;;4956694;28;20039;-77
2021/12/25 07:35:29;;;;;;;33.92;25.77;;;6.70;87.50;;;;;;4955471;28;20375;-77
2021/12/25 07:37:55;;;;;;;35.58;25.98;;;6.70;87.60;;;;;;4958113;28;20118;-75
2021/12/25 07:40:22;;;;;;;33.17;25.10;;;6.70;87.70;;;;;;4969233;28;20058;-76
2021/12/25 07:42:48;;;;;;;34.15;26.00;;;6.70;88.10;;;;;;4964411;28;20039;-76
2021/12/25 07:45:14;;;;;;;37.80;27.25;;;6.80;87.80;;;;;;4953071;28;20961;-76
2021/12/25 07:47:46;;;;;;;36.72;26.77;;;6.80;87.50;;;;;;4953946;28;20492;-76
2021/12/25 07:50:13;;;;;;;32.83;26.70;;;6.90;87.30;;;;;;4953315;28;20036;-76
2021/12/25 07:52:39;;;;;;;48.60;35.17;;;6.90;87.30;;;;;;4959191;28;20031;-84
2021/12/25 07:55:06;;;;;;;47.00;35.55;;;6.60;87.60;;;;;;4962418;28;20379;-80
2021/12/25 07:57:31;;;;;;;35.28;26.15;;;6.40;89.00;;;;;;4963309;28;20043;-80
2021/12/25 07:59:57;;;;;;;34.15;25.42;;;6.40;89.00;;;;;;4953536;28;20499;-81
2021/12/25 08:02:23;;;;;;;34.78;25.80;;;6.50;88.90;;;;;;4953622;28;20047;-81
2021/12/25 08:04:49;;;;;;;39.42;31.08;;;6.60;89.00;;;;;;4953887;28;20106;-80
2021/12/25 08:07:14;;;;;;;40.72;30.83;;;6.70;89.30;;;;;;4962757;28;20039;-81
2021/12/25 08:09:42;;;;;;;36.30;27.95;;;6.70;89.20;;;;;;4964695;28;20035;-80
2021/12/25 08:12:08;;;;;;;38.25;27.50;;;6.70;89.50;;;;;;4954410;28;20099;-81
2021/12/25 08:14:34;;;;;;;33.33;26.05;;;6.70;89.30;;;;;;4973313;28;20101;-81
2021/12/25 08:17:02;;;;;;;32.90;25.77;;;6.70;89.00;;;;;;4962899;28;20122;-81
2021/12/25 08:19:28;;;;;;;35.58;27.00;;;6.80;89.00;;;;;;4958325;28;20034;-79
2021/12/25 08:21:54;;;;;;;42.22;28.25;;;6.80;89.50;;;;;;4957840;28;20045;-78
2021/12/25 08:24:20;;;;;;;34.28;25.73;;;6.80;89.20;;;;;;4956564;28;20031;-77
2021/12/25 08:26:46;;;;;;;41.22;29.75;;;6.90;89.20;;;;;;4957236;28;20046;-77
2021/12/25 08:29:13;;;;;;;38.78;28.38;;;6.80;89.60;;;;;;4958071;29;20500;-77
2021/12/25 08:31:41;;;;;;;44.72;33.47;;;6.90;89.40;;;;;;4956878;28;20499;-76
2021/12/25 08:34:08;;;;;;;58.88;45.40;;;6.90;89.50;;;;;;4958945;28;20045;-77
2021/12/25 08:36:34;;;;;;;41.78;30.92;;;6.80;89.90;;;;;;4958489;28;20047;-77
2021/12/25 08:39:00;;;;;;;58.63;42.80;;;6.70;90.60;;;;;;4957046;29;20046;-77
2021/12/25 08:41:29;;;;;;;65.55;46.28;;;6.60;90.60;;;;;;4957060;28;20110;-76
2021/12/25 08:44:00;;;;;;;45.70;32.05;;;6.40;90.90;;;;;;4957154;28;20468;-77
2021/12/25 08:46:44;;;;;;;42.33;31.27;;;6.30;91.30;;;;;;4955995;28;20046;-77
2021/12/25 08:49:16;;;;;;;61.33;43.97;;;6.50;91.10;;;;;;4960112;28;20097;-77
2021/12/25 08:51:43;;;;;;;42.90;31.83;;;6.50;91.00;;;;;;4962800;28;20082;-81
2021/12/25 08:54:09;;;;;;;56.78;41.22;;;6.50;91.20;;;;;;4954258;28;20408;-84
2021/12/25 08:56:35;;;;;;;45.67;33.40;;;6.40;91.20;;;;;;4962582;28;20109;-81
2021/12/25 08:59:02;;;;;;;45.40;32.60;;;6.60;91.30;;;;;;4958287;28;20500;-78
2021/12/25 09:01:28;;;;;;;47.55;33.17;;;6.70;91.10;;;;;;4966170;28;20504;-79
2021/12/25 09:03:55;;;;;;;41.20;29.85;;;6.70;91.00;;;;;;4966215;28;20055;-79
2021/12/25 09:06:21;;;;;;;61.67;45.22;;;6.80;90.80;;;;;;4969276;28;20110;-79
2021/12/25 09:08:46;;;;;;;54.92;38.88;;;6.80;90.60;;;;;;4971596;28;20126;-78
2021/12/25 09:11:12;;;;;;;56.53;40.65;;;6.70;90.80;;;;;;4968221;28;20077;-79
2021/12/25 09:13:38;;;;;;;45.63;32.30;;;6.60;90.70;;;;;;4959505;28;20047;-79
2021/12/25 09:16:03;;;;;;;43.50;31.20;;;6.60;91.00;;;;;;4955391;29;20031;-79
2021/12/25 09:18:29;;;;;;;42.28;30.13;;;6.80;91.10;;;;;;4965854;28;20125;-78
2021/12/25 09:20:55;;;;;;;43.85;30.77;;;6.90;90.70;;;;;;4956382;28;20035;-79
2021/12/25 09:23:21;;;;;;;37.70;28.30;;;7.00;90.50;;;;;;4955798;28;20039;-78
2021/12/25 09:25:46;;;;;;;42.28;30.80;;;7.10;90.30;;;;;;4957378;29;20043;-79
2021/12/25 09:28:13;;;;;;;50.22;35.35;;;7.20;90.20;;;;;;4957251;29;20082;-78
2021/12/25 09:30:38;;;;;;;41.47;31.42;;;7.30;90.00;;;;;;4957428;29;20111;-78
2021/12/25 09:33:04;;;;;;;39.45;30.30;;;7.30;89.60;;;;;;4957048;29;20130;-78
2021/12/25 09:35:30;;;;;;;40.15;30.50;;;7.30;89.60;;;;;;4952477;28;20050;-78
2021/12/25 09:37:56;;;;;;;45.33;32.35;;;7.40;89.40;;;;;;4958550;28;20047;-78
2021/12/25 09:40:22;;;;;;;39.30;30.70;;;7.40;89.40;;;;;;4972775;28;20042;-77
2021/12/25 09:42:47;;;;;;;40.75;29.83;;;7.50;89.40;;;;;;4972518;28;20551;-77
2021/12/25 09:45:13;;;;;;;43.90;32.63;;;7.60;89.20;;;;;;4972995;28;20125;-77
2021/12/25 09:47:40;;;;;;;49.08;35.97;;;7.50;89.00;;;;;;4969278;28;20027;-77
2021/12/25 09:50:06;;;;;;;42.08;30.77;;;7.50;89.10;;;;;;4959839;28;20051;-76
2021/12/25 09:52:32;;;;;;;41.55;32.53;;;7.40;88.60;;;;;;4972817;28;20102;-77
2021/12/25 09:54:58;;;;;;;44.05;32.67;;;7.50;89.00;;;;;;4966242;28;20038;-77
2021/12/25 09:57:24;;;;;;;42.03;30.42;;;7.50;88.50;;;;;;4969134;28;20129;-77
2021/12/25 09:59:52;;;;;;;45.97;33.40;;;7.50;88.70;;;;;;4954106;28;20054;-77
2021/12/25 10:02:18;;;;;;;51.15;37.17;;;7.50;88.10;;;;;;4954077;28;20031;-77
2021/12/25 10:04:48;;;;;;;44.63;32.83;;;7.50;88.50;;;;;;4953962;28;20130;-77
2021/12/25 10:07:14;;;;;;;43.17;32.25;;;7.60;88.40;;;;;;4957616;28;20042;-77
2021/12/25 10:09:39;;;;;;;55.67;41.15;;;7.60;88.30;;;;;;4971628;28;20043;-78
2021/12/25 10:12:10;;;;;;;41.08;31.50;;;7.70;87.50;;;;;;4958672;28;20038;-77
2021/12/25 10:14:38;;;;;;;54.63;40.55;;;7.60;87.60;;;;;;4969249;28;20039;-77
2021/12/25 10:17:24;;;;;;;41.72;32.35;;;7.60;88.10;;;;;;4957639;28;20053;-77
2021/12/25 10:20:15;;;;;;;44.15;32.38;;;7.50;88.80;;;;;;4959303;28;20101;-76
2021/12/25 10:23:14;;;;;;;43.05;32.10;;;7.60;88.50;;;;;;4950821;28;20035;-77
2021/12/25 10:25:52;;;;;;;43.92;32.42;;;7.80;88.60;;;;;;4961564;28;20034;-77
2021/12/25 10:28:21;;;;;;;45.80;33.95;;;7.90;88.50;;;;;;4950930;28;20122;-77
2021/12/25 10:30:59;;;;;;;46.83;34.00;;;7.90;88.30;;;;;;4950675;28;20035;-80
2021/12/25 10:33:37;;;;;;;46.47;33.65;;;8.00;88.40;;;;;;4952519;28;20058;-77
2021/12/25 10:36:24;;;;;;;44.08;34.47;;;8.00;88.30;;;;;;4966417;28;20071;-77
2021/12/25 10:39:08;;;;;;;55.92;43.67;;;8.00;88.00;;;;;;4963027;28;20034;-77
2021/12/25 10:41:37;;;;;;;55.15;39.88;;;7.90;88.00;;;;;;4966962;28;20142;-76
2021/12/25 10:44:23;;;;;;;48.05;36.08;;;7.90;88.40;;;;;;4962619;28;20126;-76
2021/12/25 10:47:02;;;;;;;50.22;35.33;;;8.00;88.30;;;;;;4984001;28;20069;-75
2021/12/25 10:49:33;;;;;;;49.50;37.63;;;8.00;88.20;;;;;;4953994;28;20609;-75
2021/12/25 10:52:29;;;;;;;48.75;36.47;;;8.10;88.10;;;;;;4959602;28;20102;-77
2021/12/25 10:55:02;;;;;;;52.50;37.58;;;8.10;87.90;;;;;;4951619;28;20047;-76
2021/12/25 10:57:40;;;;;;;53.97;37.92;;;8.10;88.00;;;;;;4955283;28;20105;-77
2021/12/25 11:00:08;;;;;;;69.60;49.88;;;8.10;88.10;;;;;;4955454;28;20437;-77
2021/12/25 11:02:40;;;;;;;49.15;38.28;;;8.10;88.00;;;;;;4967751;28;20035;-81
2021/12/25 11:05:29;;;;;;;49.72;36.58;;;8.10;88.00;;;;;;4977167;28;20042;-76
2021/12/25 11:08:09;;;;;;;50.63;38.13;;;8.10;88.00;;;;;;4954177;28;20038;-80
2021/12/25 11:10:52;;;;;;;50.85;37.75;;;8.10;88.10;;;;;;4966006;28;20385;-79
2021/12/25 11:13:22;;;;;;;51.00;37.10;;;8.10;88.10;;;;;;4942516;29;20043;-80
2021/12/25 11:15:52;;;;;;;51.72;38.40;;;8.10;88.00;;;;;;4955597;29;20118;-80
2021/12/25 11:18:19;;;;;;;48.10;37.55;;;8.10;88.00;;;;;;4954852;28;20031;-80
2021/12/25 11:20:46;;;;;;;46.47;37.13;;;8.20;88.00;;;;;;4955841;29;20038;-80
2021/12/25 11:23:13;;;;;;;52.55;39.63;;;8.20;88.00;;;;;;4955643;29;20122;-81
2021/12/25 11:25:43;;;;;;;54.10;39.65;;;8.20;88.00;;;;;;4955964;29;20061;-80
2021/12/25 11:28:12;;;;;;;53.17;39.50;;;8.20;88.00;;;;;;4955624;29;20038;-80
2021/12/25 11:30:42;;;;;;;53.30;40.22;;;8.30;88.00;;;;;;4955170;29;20556;-80
2021/12/25 11:33:09;;;;;;;54.05;40.63;;;8.30;87.80;;;;;;4955516;28;20035;-80
2021/12/25 11:35:35;;;;;;;48.70;37.17;;;8.30;87.80;;;;;;4955302;29;20372;-80
2021/12/25 11:38:04;;;;;;;52.92;40.72;;;8.30;87.70;;;;;;4955544;29;20050;-80
2021/12/25 11:40:33;;;;;;;54.40;41.67;;;8.30;87.70;;;;;;4955689;29;20049;-80
2021/12/25 11:43:02;;;;;;;51.72;40.42;;;8.30;87.70;;;;;;4955050;29;20047;-79
2021/12/25 11:45:35;;;;;;;54.38;42.28;;;8.30;87.70;;;;;;4985811;28;20399;-80
2021/12/25 11:48:12;;;;;;;51.88;40.08;;;8.40;87.80;;;;;;4963114;28;20035;-80
2021/12/25 11:50:41;;;;;;;55.53;40.08;;;8.40;87.60;;;;;;4974459;28;20121;-80
2021/12/25 11:54:04;;;;;;;54.60;42.25;;;8.50;87.70;;;;;;4974384;28;20039;-80
2021/12/25 11:56:29;;;;;;;53.15;40.90;;;8.40;87.60;;;;;;4971860;28;20031;-80
2021/12/25 11:58:58;;;;;;;56.38;42.17;;;8.50;87.60;;;;;;4974151;28;20096;-80
2021/12/25 12:01:31;;;;;;;55.63;42.40;;;8.50;87.50;;;;;;4954287;29;20440;-80
2021/12/25 12:04:24;;;;;;;55.85;43.20;;;8.60;87.50;;;;;;4955002;29;20039;-80
2021/12/25 12:07:22;;;;;;;56.08;41.90;;;8.60;87.20;;;;;;4954087;29;20059;-80
2021/12/25 12:09:55;;;;;;;52.35;40.58;;;8.60;87.30;;;;;;4954537;29;20039;-80
2021/12/25 12:12:26;;;;;;;58.95;44.17;;;8.60;87.30;;;;;;4954773;29;20040;-80
2021/12/25 12:15:16;;;;;;;55.95;42.63;;;8.70;87.40;;;;;;4954569;29;20039;-80
2021/12/25 12:17:43;;;;;;;58.40;42.75;;;8.70;87.90;;;;;;4954911;28;20043;-80
2021/12/25 12:20:15;;;;;;;63.80;44.67;;;8.70;87.20;;;;;;4954148;29;20540;-80
2021/12/25 12:23:02;;;;;;;56.22;43.45;;;8.70;87.20;;;;;;4953746;29;20046;-80
2021/12/25 12:25:45;;;;;;;64.53;46.53;;;8.70;87.20;;;;;;4955822;29;20108;-80
2021/12/25 12:28:11;;;;;;;52.85;40.38;;;8.70;86.70;;;;;;4955367;28;20078;-80
2021/12/25 12:30:39;;;;;;;69.68;50.67;;;8.60;87.30;;;;;;4954092;29;20039;-80
2021/12/25 12:33:19;;;;;;;62.42;44.97;;;8.40;86.30;;;;;;4954924;28;20039;-80
2021/12/25 12:35:47;;;;;;;;;;;8.40;86.90;;;;;;4949416;29;20046;-80
2021/12/25 12:38:36;;;;;;;70.82;49.47;;;8.50;87.00;;;;;;4954894;28;19910;-80
2021/12/25 12:41:32;;;;;;;56.00;40.47;;;8.40;86.30;;;;;;4954627;29;20044;-80
2021/12/25 12:44:33;;;;;;;54.63;39.05;;;8.40;86.90;;;;;;4954762;29;20055;-80
2021/12/25 12:47:03;;;;;;;58.90;40.85;;;8.50;86.90;;;;;;4956897;28;20090;-80
2021/12/25 12:49:54;;;;;;;56.60;41.80;;;8.50;86.80;;;;;;4974311;28;20066;-80
2021/12/25 12:52:22;;;;;;;54.88;39.85;;;8.50;86.80;;;;;;4974444;28;20038;-80
2021/12/25 12:54:59;;;;;;;58.25;43.03;;;8.50;86.70;;;;;;4974286;28;20384;-80
2021/12/25 12:57:43;;;;;;;66.38;49.25;;;8.60;86.60;;;;;;4974359;28;20061;-80
2021/12/25 13:00:25;;;;;;;50.67;37.15;;;8.40;86.60;;;;;;4975128;28;20046;-80
2021/12/25 13:02:53;;;;;;;53.28;38.88;;;8.30;87.00;;;;;;4955330;29;20050;-80
2021/12/25 13:05:22;;;;;;;73.50;52.95;;;8.40;87.00;;;;;;4956011;29;20050;-80
2021/12/25 13:07:49;;;;;;;60.15;43.90;;;8.30;87.40;;;;;;4957281;29;20141;-80
2021/12/25 13:10:27;;;;;;;63.17;46.70;;;8.40;87.70;;;;;;4958122;29;20102;-80
2021/12/25 13:13:07;;;;;;;56.67;40.28;;;8.30;87.50;;;;;;4957795;29;20049;-80
2021/12/25 13:15:34;;;;;;;60.35;43.58;;;8.40;87.60;;;;;;4957575;29;20091;-80
2021/12/25 13:18:03;;;;;;;82.75;59.50;;;8.50;87.60;;;;;;4957615;28;20047;-80
2021/12/25 13:20:37;;;;;;;59.83;44.13;;;8.50;87.30;;;;;;4957777;29;20399;-80
2021/12/25 13:23:11;;;;;;;63.13;46.67;;;8.40;87.60;;;;;;4957335;29;20035;-80
2021/12/25 13:25:45;;;;;;;57.42;43.08;;;8.30;87.70;;;;;;4957684;29;20469;-80
2021/12/25 13:28:11;;;;;;;60.92;43.17;;;8.30;87.80;;;;;;4957618;29;20436;-79
2021/12/25 13:30:43;;;;;;;55.78;42.25;;;8.20;88.40;;;;;;4957645;29;20067;-80
2021/12/25 13:33:14;;;;;;;60.50;44.30;;;8.20;88.40;;;;;;4957633;28;20473;-80
2021/12/25 13:35:41;;;;;;;62.90;46.58;;;8.30;88.30;;;;;;4965431;28;20045;-80
2021/12/25 13:38:08;;;;;;;65.40;46.55;;;8.30;88.50;;;;;;4976913;28;20049;-80
2021/12/25 13:40:37;;;;;;;54.22;41.40;;;8.10;89.20;;;;;;4976745;28;20039;-80
2021/12/25 13:43:05;;;;;;;55.05;40.83;;;8.20;89.00;;;;;;4976798;28;20049;-80
2021/12/25 13:45:31;;;;;;;55.08;40.45;;;8.30;88.60;;;;;;4977115;28;20316;-80
2021/12/25 13:47:57;;;;;;;53.25;39.28;;;8.40;88.40;;;;;;4970063;28;20047;-80
2021/12/25 13:50:23;;;;;;;56.80;41.55;;;8.50;88.20;;;;;;4957005;28;20073;-80
2021/12/25 13:52:58;;;;;;;56.45;41.72;;;8.60;87.90;;;;;;4957152;29;20039;-80
2021/12/25 13:55:30;;;;;;;57.85;41.92;;;8.70;87.70;;;;;;4958267;28;20484;-80
2021/12/25 13:58:03;;;;;;;52.20;38.97;;;8.70;87.60;;;;;;4955587;28;20043;-80
2021/12/25 14:00:34;;;;;;;54.90;40.65;;;8.80;87.40;;;;;;4956955;28;20039;-80
2021/12/25 14:03:03;;;;;;;54.20;40.15;;;8.80;87.20;;;;;;4956783;29;20040;-80
2021/12/25 14:05:34;;;;;;;55.63;40.53;;;8.80;86.90;;;;;;4957341;29;20480;-80
2021/12/25 14:08:00;;;;;;;55.80;41.03;;;8.80;87.00;;;;;;4957053;29;20094;-80
2021/12/25 14:10:28;;;;;;;57.47;41.92;;;8.90;87.10;;;;;;4956721;28;20501;-80
2021/12/25 14:12:58;;;;;;;54.80;42.38;;;8.90;87.10;;;;;;4956418;28;20109;-80
2021/12/25 14:15:27;;;;;;;53.57;39.43;;;9.00;86.90;;;;;;4956734;29;20050;-80